createdAt,value
2017-01-20T00:00:33.083Z,39.08
2017-01-20T00:01:41.764Z,39.08
2017-01-20T00:02:50.450Z,39.28
2017-01-20T00:03:59.806Z,38.99
2017-01-20T00:05:08.494Z,39.39
2017-01-20T00:06:17.567Z,38.99
2017-01-20T00:07:26.640Z,39.08
2017-01-20T00:08:36.512Z,39.08
2017-01-20T00:09:45.602Z,38.99
2017-01-20T00:10:54.305Z,39.18
2017-01-20T00:12:03.377Z,39.28
2017-01-20T00:13:12.515Z,38.99
2017-01-20T00:14:21.195Z,39.29
2017-01-20T00:15:30.257Z,39.2
2017-01-20T00:16:38.923Z,39.37
2017-01-20T00:17:47.617Z,39.39
2017-01-20T00:18:57.070Z,39.2
2017-01-20T00:20:06.131Z,39.29
2017-01-20T00:21:15.586Z,39.2
2017-01-20T00:22:24.289Z,38.99
2017-01-20T00:23:33.419Z,39.11
2017-01-20T00:24:42.866Z,39.29
2017-01-20T00:25:51.560Z,39.39
2017-01-20T00:27:00.243Z,39.2
2017-01-20T00:28:09.707Z,39.39
2017-01-20T00:29:18.775Z,39.47
2017-01-20T00:30:27.838Z,39.58
2017-01-20T00:31:36.526Z,39.58
2017-01-20T00:32:45.214Z,39.56
2017-01-20T00:33:54.659Z,39.49
2017-01-20T00:35:03.732Z,39.58
2017-01-20T00:36:12.796Z,39.68
2017-01-20T00:37:21.871Z,39.66
2017-01-20T00:38:32.109Z,39.58
2017-01-20T00:39:40.780Z,39.56
2017-01-20T00:40:49.452Z,39.56
2017-01-20T00:41:59.322Z,39.58
2017-01-20T00:43:08.000Z,39.68
2017-01-20T00:44:16.672Z,39.76
2017-01-20T00:45:26.525Z,39.68
2017-01-20T00:46:35.212Z,39.68
2017-01-20T00:47:43.899Z,39.76
2017-01-20T00:48:53.356Z,39.95
2017-01-20T00:50:02.468Z,39.49
2017-01-20T00:51:11.158Z,39.58
2017-01-20T00:52:19.841Z,39.78
2017-01-20T00:53:28.916Z,39.78
2017-01-20T00:54:37.988Z,39.97
2017-01-20T00:55:47.091Z,39.68
2017-01-20T00:56:56.556Z,39.76
2017-01-20T00:58:06.023Z,39.87
2017-01-20T00:59:14.721Z,39.87
2017-01-20T01:00:23.802Z,39.97
2017-01-20T01:01:32.873Z,40.43
2017-01-20T01:02:42.741Z,40.33
2017-01-20T01:03:51.453Z,40.23
2017-01-20T01:05:00.552Z,40.43
2017-01-20T01:06:10.009Z,40.23
2017-01-20T01:07:18.702Z,40.23
2017-01-20T01:08:27.783Z,40.14
2017-01-20T01:09:36.847Z,40.23
2017-01-20T01:10:46.701Z,40.05
2017-01-20T01:11:55.784Z,40.14
2017-01-20T01:13:04.864Z,40.23
2017-01-20T01:14:14.322Z,40.23
2017-01-20T01:15:23.775Z,40.23
2017-01-20T01:16:32.860Z,40.23
2017-01-20T01:17:41.542Z,40.05
2017-01-20T01:18:50.216Z,40.05
2017-01-20T01:19:59.289Z,40.14
2017-01-20T01:21:08.356Z,40.05
2017-01-20T01:22:17.459Z,40.05
2017-01-20T01:23:26.549Z,40.05
2017-01-20T01:24:36.082Z,40.05
2017-01-20T01:25:45.549Z,40.23
2017-01-20T01:26:54.617Z,40.43
2017-01-20T01:28:03.687Z,40.23
2017-01-20T01:29:12.748Z,40.52
2017-01-20T01:30:21.459Z,40.33
2017-01-20T01:31:30.917Z,40.62
2017-01-20T01:32:40.433Z,40.62
2017-01-20T01:33:49.499Z,40.52
2017-01-20T01:34:58.183Z,40.43
2017-01-20T01:36:07.657Z,40.33
2017-01-20T01:37:17.518Z,40.33
2017-01-20T01:38:26.581Z,40.23
2017-01-20T01:39:35.269Z,40.33
2017-01-20T01:40:43.954Z,40.33
2017-01-20T01:41:53.402Z,40.43
2017-01-20T01:43:02.471Z,40.33
2017-01-20T01:44:11.933Z,40.43
2017-01-20T01:45:20.616Z,40.43
2017-01-20T01:46:30.092Z,40.43
2017-01-20T01:47:39.159Z,40.52
2017-01-20T01:48:48.242Z,40.43
2017-01-20T01:49:56.929Z,40.43
2017-01-20T01:51:06.037Z,40.43
2017-01-20T01:52:14.720Z,40.43
2017-01-20T01:53:24.199Z,40.33
2017-01-20T01:54:33.284Z,40.52
2017-01-20T01:55:42.356Z,40.43
2017-01-20T01:56:51.042Z,40.43
2017-01-20T01:58:00.106Z,40.43
2017-01-20T01:59:09.176Z,40.43
2017-01-20T02:00:18.651Z,40.43
2017-01-20T02:01:27.711Z,40.43
2017-01-20T02:02:36.786Z,40.43
2017-01-20T02:03:47.708Z,40.43
2017-01-20T02:04:56.386Z,40.43
2017-01-20T02:06:05.487Z,40.43
2017-01-20T02:07:14.563Z,40.43
2017-01-20T02:08:23.643Z,40.62
2017-01-20T02:09:32.718Z,40.43
2017-01-20T02:10:42.173Z,40.33
2017-01-20T02:11:50.855Z,40.52
2017-01-20T02:13:00.320Z,40.52
2017-01-20T02:14:09.778Z,40.52
2017-01-20T02:15:19.242Z,40.52
2017-01-20T02:16:28.706Z,40.62
2017-01-20T02:17:37.383Z,40.62
2017-01-20T02:18:46.464Z,40.72
2017-01-20T02:19:55.143Z,40.62
2017-01-20T02:21:04.223Z,40.62
2017-01-20T02:22:12.899Z,40.72
2017-01-20T02:23:22.348Z,40.52
2017-01-20T02:24:31.802Z,40.52
2017-01-20T02:25:40.872Z,40.62
2017-01-20T02:26:50.326Z,40.52
2017-01-20T02:27:59.013Z,40.43
2017-01-20T02:29:07.685Z,40.81
2017-01-20T02:30:16.759Z,40.81
2017-01-20T02:31:25.440Z,40.62
2017-01-20T02:32:35.284Z,40.62
2017-01-20T02:33:44.346Z,40.72
2017-01-20T02:34:53.454Z,40.81
2017-01-20T02:36:03.304Z,40.91
2017-01-20T02:37:12.378Z,40.62
2017-01-20T02:38:21.833Z,40.72
2017-01-20T02:39:30.523Z,40.91
2017-01-20T02:40:39.975Z,40.81
2017-01-20T02:41:48.661Z,41
2017-01-20T02:42:57.741Z,40.91
2017-01-20T02:44:07.263Z,40.81
2017-01-20T02:45:16.330Z,40.91
2017-01-20T02:46:25.013Z,40.91
2017-01-20T02:47:33.689Z,40.91
2017-01-20T02:48:43.143Z,41.1
2017-01-20T02:49:52.612Z,41.2
2017-01-20T02:51:02.086Z,41.2
2017-01-20T02:52:11.155Z,41.1
2017-01-20T02:53:20.663Z,41.1
2017-01-20T02:54:29.338Z,41.1
2017-01-20T02:55:38.796Z,41.29
2017-01-20T02:56:47.863Z,41.2
2017-01-20T02:57:58.489Z,41.2
2017-01-20T02:59:07.579Z,41.1
2017-01-20T03:00:16.260Z,41.2
2017-01-20T03:01:25.717Z,41.1
2017-01-20T03:02:34.789Z,41.08
2017-01-20T03:03:44.247Z,41.29
2017-01-20T03:04:53.734Z,40.91
2017-01-20T03:06:02.804Z,41.2
2017-01-20T03:07:11.499Z,41
2017-01-20T03:08:20.949Z,40.91
2017-01-20T03:09:30.819Z,40.91
2017-01-20T03:10:39.888Z,40.81
2017-01-20T03:11:49.345Z,40.91
2017-01-20T03:12:58.403Z,40.91
2017-01-20T03:14:07.476Z,40.72
2017-01-20T03:15:16.165Z,40.81
2017-01-20T03:16:25.242Z,40.72
2017-01-20T03:17:35.137Z,40.43
2017-01-20T03:18:44.211Z,40.43
2017-01-20T03:19:53.274Z,40.52
2017-01-20T03:21:03.120Z,40.62
2017-01-20T03:22:11.798Z,40.52
2017-01-20T03:23:21.248Z,40.33
2017-01-20T03:24:30.331Z,40.45
2017-01-20T03:25:39.086Z,40.55
2017-01-20T03:26:48.537Z,40.52
2017-01-20T03:27:57.601Z,40.45
2017-01-20T03:29:06.273Z,40.45
2017-01-20T03:30:16.105Z,40.45
2017-01-20T03:31:25.169Z,40.35
2017-01-20T03:32:34.624Z,40.45
2017-01-20T03:33:43.695Z,40.35
2017-01-20T03:34:52.374Z,40.35
2017-01-20T03:36:01.496Z,40.35
2017-01-20T03:37:10.592Z,40.35
2017-01-20T03:38:19.658Z,40.25
2017-01-20T03:39:28.726Z,40.45
2017-01-20T03:40:38.174Z,40.45
2017-01-20T03:41:47.256Z,40.45
2017-01-20T03:42:55.943Z,40.45
2017-01-20T03:44:04.669Z,40.45
2017-01-20T03:45:13.355Z,40.45
2017-01-20T03:46:23.592Z,40.45
2017-01-20T03:47:32.683Z,40.45
2017-01-20T03:48:42.141Z,40.35
2017-01-20T03:49:51.200Z,40.55
2017-01-20T03:51:00.676Z,40.45
2017-01-20T03:52:09.360Z,40.45
2017-01-20T03:53:18.033Z,40.55
2017-01-20T03:54:27.883Z,40.45
2017-01-20T03:55:36.564Z,40.64
2017-01-20T03:56:46.418Z,40.64
2017-01-20T03:57:55.523Z,40.55
2017-01-20T03:59:04.597Z,40.55
2017-01-20T04:00:13.272Z,40.64
2017-01-20T04:01:21.948Z,40.73
2017-01-20T04:02:30.636Z,40.72
2017-01-20T04:03:39.709Z,40.81
2017-01-20T04:04:49.169Z,40.83
2017-01-20T04:05:58.242Z,40.83
2017-01-20T04:07:07.304Z,40.72
2017-01-20T04:08:16.770Z,40.93
2017-01-20T04:09:25.450Z,40.91
2017-01-20T04:10:34.907Z,40.83
2017-01-20T04:11:43.615Z,40.83
2017-01-20T04:12:53.074Z,41.02
2017-01-20T04:14:02.136Z,41
2017-01-20T04:15:11.617Z,41
2017-01-20T04:16:20.693Z,41
2017-01-20T04:17:29.760Z,41.2
2017-01-20T04:18:38.443Z,41.1
2017-01-20T04:19:47.119Z,41.2
2017-01-20T04:20:55.787Z,41.29
2017-01-20T04:22:04.862Z,41.1
2017-01-20T04:23:14.377Z,41.2
2017-01-20T04:24:23.054Z,41.29
2017-01-20T04:25:31.721Z,41.1
2017-01-20T04:26:40.404Z,41.29
2017-01-20T04:27:49.491Z,41.77
2017-01-20T04:28:58.558Z,41.49
2017-01-20T04:30:09.090Z,41.77
2017-01-20T04:31:18.166Z,41.67
2017-01-20T04:32:28.025Z,41.67
2017-01-20T04:33:37.085Z,41.67
2017-01-20T04:34:46.150Z,41.58
2017-01-20T04:35:54.851Z,41.49
2017-01-20T04:37:04.336Z,41.67
2017-01-20T04:38:13.406Z,41.49
2017-01-20T04:39:22.464Z,41.49
2017-01-20T04:40:31.539Z,41.58
2017-01-20T04:41:40.219Z,41.39
2017-01-20T04:42:49.277Z,41.39
2017-01-20T04:43:58.368Z,41.49
2017-01-20T04:45:07.442Z,41.49
2017-01-20T04:46:16.934Z,41.39
2017-01-20T04:47:26.451Z,41.39
2017-01-20T04:48:35.933Z,41.49
2017-01-20T04:49:44.994Z,41.39
2017-01-20T04:50:54.066Z,41.39
2017-01-20T04:52:03.540Z,41.49
2017-01-20T04:53:12.263Z,41.49
2017-01-20T04:54:21.328Z,41.49
2017-01-20T04:55:30.005Z,41.58
2017-01-20T04:56:39.074Z,41.49
2017-01-20T04:57:47.742Z,41.49
2017-01-20T04:58:56.831Z,41.58
2017-01-20T05:00:05.529Z,41.67
2017-01-20T05:01:14.608Z,41.58
2017-01-20T05:02:23.675Z,41.58
2017-01-20T05:03:32.758Z,41.49
2017-01-20T05:04:41.828Z,41.58
2017-01-20T05:05:50.512Z,41.87
2017-01-20T05:06:59.197Z,41.49
2017-01-20T05:08:08.667Z,41.39
2017-01-20T05:09:18.279Z,41.29
2017-01-20T05:10:26.956Z,41.1
2017-01-20T05:11:36.029Z,41.2
2017-01-20T05:12:44.700Z,41.2
2017-01-20T05:13:53.376Z,41.2
2017-01-20T05:15:02.856Z,41.1
2017-01-20T05:16:11.973Z,41
2017-01-20T05:17:21.425Z,41.22
2017-01-20T05:18:30.892Z,41.2
2017-01-20T05:19:40.403Z,41.1
2017-01-20T05:20:49.075Z,41
2017-01-20T05:21:58.887Z,41.2
2017-01-20T05:23:07.614Z,41.2
2017-01-20T05:24:16.281Z,41.22
2017-01-20T05:25:26.142Z,41.2
2017-01-20T05:26:34.820Z,41.02
2017-01-20T05:27:43.502Z,41.1
2017-01-20T05:28:52.983Z,41.1
2017-01-20T05:30:01.663Z,41.2
2017-01-20T05:31:11.940Z,41
2017-01-20T05:32:21.009Z,41
2017-01-20T05:33:29.679Z,41.22
2017-01-20T05:34:39.135Z,41.02
2017-01-20T05:35:48.266Z,41.22
2017-01-20T05:36:57.325Z,41.12
2017-01-20T05:38:06.006Z,41.1
2017-01-20T05:39:15.071Z,41
2017-01-20T05:40:24.141Z,40.93
2017-01-20T05:41:32.831Z,40.83
2017-01-20T05:42:41.892Z,40.64
2017-01-20T05:43:50.953Z,40.64
2017-01-20T05:45:00.023Z,40.64
2017-01-20T05:46:08.709Z,40.45
2017-01-20T05:47:17.389Z,40.45
2017-01-20T05:48:26.459Z,40.55
2017-01-20T05:49:35.929Z,40.45
2017-01-20T05:50:44.604Z,40.18
2017-01-20T05:51:53.289Z,40.18
2017-01-20T05:53:01.979Z,40.18
2017-01-20T05:54:10.669Z,40.37
2017-01-20T05:55:20.137Z,39.79
2017-01-20T05:56:29.974Z,39.61
2017-01-20T05:57:39.040Z,39.79
2017-01-20T05:58:47.729Z,39.61
2017-01-20T05:59:56.398Z,39.41
2017-01-20T06:01:05.874Z,39.12
2017-01-20T06:02:15.167Z,39.33
2017-01-20T06:03:23.835Z,39.31
2017-01-20T06:04:32.551Z,39.53
2017-01-20T06:05:42.018Z,39.33
2017-01-20T06:06:51.489Z,39.43
2017-01-20T06:08:00.185Z,39.53
2017-01-20T06:09:09.254Z,39.43
2017-01-20T06:10:19.113Z,38.95
2017-01-20T06:11:28.174Z,38.95
2017-01-20T06:12:36.848Z,38.95
2017-01-20T06:13:45.921Z,39.24
2017-01-20T06:14:55.399Z,39.24
2017-01-20T06:16:04.472Z,39.33
2017-01-20T06:17:13.919Z,38.85
2017-01-20T06:18:23.375Z,38.68
2017-01-20T06:19:32.067Z,38.78
2017-01-20T06:20:42.180Z,38.68
2017-01-20T06:21:51.286Z,38.59
2017-01-20T06:23:00.357Z,38.49
2017-01-20T06:24:10.203Z,38.29
2017-01-20T06:25:18.871Z,38.01
2017-01-20T06:26:28.322Z,38.01
2017-01-20T06:27:37.381Z,38.2
2017-01-20T06:28:46.457Z,38.2
2017-01-20T06:29:55.527Z,38.1
2017-01-20T06:31:05.375Z,38.59
2017-01-20T06:32:14.437Z,38.41
2017-01-20T06:33:23.115Z,38.22
2017-01-20T06:34:33.364Z,38.12
2017-01-20T06:35:42.832Z,38.02
2017-01-20T06:36:51.921Z,38.02
2017-01-20T06:38:00.605Z,37.93
2017-01-20T06:39:09.690Z,37.93
2017-01-20T06:40:18.435Z,37.74
2017-01-20T06:41:27.524Z,37.83
2017-01-20T06:42:36.997Z,37.64
2017-01-20T06:43:45.676Z,37.64
2017-01-20T06:44:55.137Z,37.54
2017-01-20T06:46:03.813Z,37.45
2017-01-20T06:47:12.876Z,37.76
2017-01-20T06:48:21.943Z,37.66
2017-01-20T06:49:31.025Z,37.74
2017-01-20T06:50:40.867Z,37.66
2017-01-20T06:51:49.559Z,37.66
2017-01-20T06:52:58.628Z,37.66
2017-01-20T06:54:07.710Z,37.85
2017-01-20T06:55:16.384Z,37.95
2017-01-20T06:56:25.091Z,38.04
2017-01-20T06:57:33.788Z,37.85
2017-01-20T06:58:42.790Z,37.93
2017-01-20T06:59:52.252Z,38.12
2017-01-20T07:01:01.329Z,38.43
2017-01-20T07:02:10.821Z,38.41
2017-01-20T07:03:20.265Z,38.31
2017-01-20T07:04:29.725Z,38.22
2017-01-20T07:05:39.185Z,38.31
2017-01-20T07:06:48.648Z,38.41
2017-01-20T07:07:57.382Z,38.12
2017-01-20T07:09:06.465Z,38.31
2017-01-20T07:10:15.931Z,38.6
2017-01-20T07:11:24.627Z,38.41
2017-01-20T07:12:33.712Z,38.41
2017-01-20T07:13:43.166Z,38.51
2017-01-20T07:14:52.650Z,38.89
2017-01-20T07:16:01.713Z,39.18
2017-01-20T07:17:11.578Z,39.37
2017-01-20T07:18:20.247Z,39.28
2017-01-20T07:19:29.316Z,39.09
2017-01-20T07:20:38.387Z,38.89
2017-01-20T07:21:47.899Z,38.89
2017-01-20T07:22:56.579Z,39.45
2017-01-20T07:24:06.428Z,39.45
2017-01-20T07:25:15.880Z,39.28
2017-01-20T07:26:24.979Z,39.26
2017-01-20T07:27:34.423Z,39.45
2017-01-20T07:28:43.973Z,39.45
2017-01-20T07:29:52.659Z,39.74
2017-01-20T07:31:01.745Z,39.64
2017-01-20T07:32:10.828Z,39.83
2017-01-20T07:33:20.381Z,39.93
2017-01-20T07:34:29.065Z,39.93
2017-01-20T07:35:38.137Z,40.41
2017-01-20T07:36:47.615Z,40.31
2017-01-20T07:37:56.296Z,40.41
2017-01-20T07:39:05.387Z,40.3
2017-01-20T07:40:14.464Z,40.2
2017-01-20T07:41:23.921Z,40.39
2017-01-20T07:42:33.000Z,40.58
2017-01-20T07:43:42.084Z,40.68
2017-01-20T07:44:51.541Z,40.68
2017-01-20T07:46:01.005Z,40.49
2017-01-20T07:47:09.689Z,40.49
2017-01-20T07:48:18.765Z,40.58
2017-01-20T07:49:27.839Z,40.49
2017-01-20T07:50:37.319Z,40.49
2017-01-20T07:51:46.796Z,40.68
2017-01-20T07:52:56.249Z,40.58
2017-01-20T07:54:05.709Z,40.76
2017-01-20T07:55:14.805Z,40.56
2017-01-20T07:56:24.271Z,40.78
2017-01-20T07:57:33.335Z,40.95
2017-01-20T07:58:42.017Z,40.85
2017-01-20T07:59:51.494Z,40.76
2017-01-20T08:01:00.614Z,40.76
2017-01-20T08:02:09.323Z,40.85
2017-01-20T08:03:18.436Z,41.05
2017-01-20T08:04:27.531Z,40.85
2017-01-20T08:05:36.203Z,40.95
2017-01-20T08:06:45.310Z,41.14
2017-01-20T08:07:54.449Z,41.14
2017-01-20T08:09:03.142Z,41.14
2017-01-20T08:10:12.212Z,41.24
2017-01-20T08:11:20.883Z,41.14
2017-01-20T08:12:29.964Z,41.33
2017-01-20T08:13:39.417Z,41.24
2017-01-20T08:14:48.898Z,41.24
2017-01-20T08:15:57.969Z,41.05
2017-01-20T08:17:07.072Z,41.14
2017-01-20T08:18:16.516Z,41.43
2017-01-20T08:19:25.586Z,41.53
2017-01-20T08:20:34.675Z,41.53
2017-01-20T08:21:43.356Z,41.62
2017-01-20T08:22:52.834Z,41.62
2017-01-20T08:24:01.931Z,41.5
2017-01-20T08:25:11.006Z,41.53
2017-01-20T08:26:20.462Z,41.7
2017-01-20T08:27:29.557Z,41.53
2017-01-20T08:28:39.413Z,41.43
2017-01-20T08:29:48.885Z,41.41
2017-01-20T08:30:57.965Z,41.41
2017-01-20T08:32:07.049Z,41.5
2017-01-20T08:33:16.119Z,41.7
2017-01-20T08:34:25.230Z,41.5
2017-01-20T08:35:34.753Z,41.89
2017-01-20T08:36:43.846Z,41.6
2017-01-20T08:37:52.525Z,41.79
2017-01-20T08:39:02.393Z,41.79
2017-01-20T08:40:12.251Z,41.5
2017-01-20T08:41:21.735Z,41.5
2017-01-20T08:42:30.418Z,41.5
2017-01-20T08:43:39.474Z,41.6
2017-01-20T08:44:48.557Z,41.6
2017-01-20T08:45:57.238Z,41.79
2017-01-20T08:47:05.918Z,41.79
2017-01-20T08:48:14.996Z,41.7
2017-01-20T08:49:23.694Z,41.7
2017-01-20T08:50:33.163Z,41.7
2017-01-20T08:51:41.851Z,41.6
2017-01-20T08:52:51.320Z,41.6
2017-01-20T08:54:00.009Z,41.6
2017-01-20T08:55:09.074Z,41.6
2017-01-20T08:56:18.538Z,41.5
2017-01-20T08:57:27.610Z,41.89
2017-01-20T08:58:37.083Z,41.5
2017-01-20T08:59:45.786Z,41.79
2017-01-20T09:00:55.250Z,41.6
2017-01-20T09:02:04.314Z,41.99
2017-01-20T09:03:13.014Z,41.5
2017-01-20T09:04:22.112Z,41.5
2017-01-20T09:05:31.199Z,41.89
2017-01-20T09:06:40.652Z,41.79
2017-01-20T09:07:49.728Z,41.6
2017-01-20T09:08:59.191Z,41.89
2017-01-20T09:10:07.951Z,41.79
2017-01-20T09:11:16.652Z,41.89
2017-01-20T09:12:25.749Z,41.89
2017-01-20T09:13:34.422Z,41.79
2017-01-20T09:14:43.495Z,41.89
2017-01-20T09:15:52.564Z,41.79
2017-01-20T09:17:01.647Z,41.7
2017-01-20T09:18:11.492Z,41.79
2017-01-20T09:19:20.950Z,41.67
2017-01-20T09:20:30.029Z,41.67
2017-01-20T09:21:39.487Z,41.6
2017-01-20T09:22:48.951Z,41.77
2017-01-20T09:23:58.039Z,41.79
2017-01-20T09:25:07.114Z,41.7
2017-01-20T09:26:16.566Z,41.89
2017-01-20T09:27:26.028Z,41.79
2017-01-20T09:28:35.489Z,41.79
2017-01-20T09:29:44.176Z,41.89
2017-01-20T09:30:53.647Z,41.58
2017-01-20T09:32:02.334Z,41.58
2017-01-20T09:33:11.432Z,41.79
2017-01-20T09:34:21.316Z,41.79
2017-01-20T09:35:30.781Z,41.7
2017-01-20T09:36:39.456Z,41.87
2017-01-20T09:37:48.136Z,41.77
2017-01-20T09:38:57.208Z,41.87
2017-01-20T09:40:06.687Z,41.79
2017-01-20T09:41:16.137Z,41.77
2017-01-20T09:42:25.592Z,41.77
2017-01-20T09:43:34.268Z,41.87
2017-01-20T09:44:43.353Z,41.87
2017-01-20T09:45:52.046Z,41.77
2017-01-20T09:47:01.126Z,41.87
2017-01-20T09:48:10.196Z,41.77
2017-01-20T09:49:19.296Z,41.87
2017-01-20T09:50:28.360Z,41.67
2017-01-20T09:51:37.817Z,41.77
2017-01-20T09:52:47.670Z,41.67
2017-01-20T09:53:56.355Z,41.77
2017-01-20T09:55:05.813Z,41.87
2017-01-20T09:56:15.276Z,41.77
2017-01-20T09:57:24.359Z,41.67
2017-01-20T09:58:33.430Z,41.87
2017-01-20T09:59:42.536Z,41.58
2017-01-20T10:00:51.995Z,41.87
2017-01-20T10:02:01.468Z,41.58
2017-01-20T10:03:10.157Z,41.58
2017-01-20T10:04:19.231Z,41.58
2017-01-20T10:05:28.302Z,41.58
2017-01-20T10:06:37.376Z,41.77
2017-01-20T10:07:46.437Z,41.49
2017-01-20T10:08:55.131Z,41.87
2017-01-20T10:10:04.597Z,41.58
2017-01-20T10:11:13.693Z,41.58
2017-01-20T10:12:23.187Z,41.77
2017-01-20T10:13:31.881Z,41.77
2017-01-20T10:14:40.566Z,41.67
2017-01-20T10:15:50.082Z,41.77
2017-01-20T10:16:58.759Z,41.67
2017-01-20T10:18:07.827Z,41.87
2017-01-20T10:19:16.498Z,41.77
2017-01-20T10:20:25.574Z,41.77
2017-01-20T10:21:34.643Z,42.06
2017-01-20T10:22:44.105Z,41.77
2017-01-20T10:23:53.571Z,41.49
2017-01-20T10:25:03.032Z,41.67
2017-01-20T10:26:12.487Z,41.67
2017-01-20T10:27:21.955Z,41.77
2017-01-20T10:28:30.645Z,41.87
2017-01-20T10:29:39.717Z,41.77
2017-01-20T10:30:48.403Z,41.77
2017-01-20T10:31:57.468Z,41.67
2017-01-20T10:33:06.931Z,41.87
2017-01-20T10:34:16.006Z,41.77
2017-01-20T10:35:25.465Z,41.67
2017-01-20T10:36:34.535Z,41.77
2017-01-20T10:37:43.592Z,41.96
2017-01-20T10:38:53.093Z,41.87
2017-01-20T10:40:02.472Z,41.67
2017-01-20T10:41:11.154Z,41.77
2017-01-20T10:42:20.219Z,41.87
2017-01-20T10:43:29.286Z,41.77
2017-01-20T10:44:39.154Z,41.77
2017-01-20T10:45:48.608Z,41.87
2017-01-20T10:46:58.266Z,41.77
2017-01-20T10:48:07.362Z,41.49
2017-01-20T10:49:16.452Z,41.49
2017-01-20T10:50:25.517Z,41.49
2017-01-20T10:51:34.215Z,41.87
2017-01-20T10:52:43.287Z,41.67
2017-01-20T10:53:51.975Z,41.49
2017-01-20T10:55:01.442Z,41.58
2017-01-20T10:56:10.123Z,41.58
2017-01-20T10:57:19.578Z,41.87
2017-01-20T10:58:28.659Z,41.87
2017-01-20T10:59:38.124Z,41.49
2017-01-20T11:00:47.200Z,41.67
2017-01-20T11:01:56.680Z,41.49
2017-01-20T11:03:05.777Z,41.49
2017-01-20T11:04:15.621Z,41.58
2017-01-20T11:05:24.317Z,41.58
2017-01-20T11:06:34.178Z,41.67
2017-01-20T11:07:43.650Z,41.67
2017-01-20T11:08:52.737Z,41.58
2017-01-20T11:10:02.204Z,41.58
2017-01-20T11:11:11.662Z,41.77
2017-01-20T11:12:20.359Z,41.77
2017-01-20T11:13:29.509Z,41.67
2017-01-20T11:14:38.580Z,41.67
2017-01-20T11:15:48.050Z,41.77
2017-01-20T11:16:57.142Z,41.77
2017-01-20T11:18:06.994Z,41.77
2017-01-20T11:19:15.684Z,41.49
2017-01-20T11:20:25.549Z,41.58
2017-01-20T11:21:34.261Z,41.77
2017-01-20T11:22:42.948Z,41.58
2017-01-20T11:23:51.653Z,41.79
2017-01-20T11:25:00.729Z,41.67
2017-01-20T11:26:10.589Z,41.67
2017-01-20T11:27:19.269Z,41.77
2017-01-20T11:28:28.329Z,41.58
2017-01-20T11:29:37.773Z,41.7
2017-01-20T11:30:47.233Z,41.67
2017-01-20T11:31:56.697Z,41.67
2017-01-20T11:33:05.783Z,41.6
2017-01-20T11:34:15.248Z,41.67
2017-01-20T11:35:24.323Z,41.77
2017-01-20T11:36:32.996Z,41.77
2017-01-20T11:37:42.839Z,41.77
2017-01-20T11:38:51.510Z,41.67
2017-01-20T11:40:00.584Z,41.77
2017-01-20T11:41:09.257Z,41.7
2017-01-20T11:42:18.736Z,41.77
2017-01-20T11:43:28.202Z,41.58
2017-01-20T11:44:36.889Z,41.77
2017-01-20T11:45:45.963Z,41.5
2017-01-20T11:46:55.030Z,41.49
2017-01-20T11:48:03.706Z,41.58
2017-01-20T11:49:13.172Z,41.58
2017-01-20T11:50:21.855Z,41.58
2017-01-20T11:51:30.933Z,41.49
2017-01-20T11:52:40.027Z,41.87
2017-01-20T11:53:49.155Z,41.58
2017-01-20T11:54:58.235Z,41.67
2017-01-20T11:56:07.693Z,41.77
2017-01-20T11:57:17.540Z,41.87
2017-01-20T11:58:26.993Z,41.67
2017-01-20T11:59:36.073Z,41.87
2017-01-20T12:00:44.781Z,41.67
2017-01-20T12:01:53.453Z,41.87
2017-01-20T12:03:02.145Z,41.58
2017-01-20T12:04:11.228Z,41.67
2017-01-20T12:05:20.293Z,41.96
2017-01-20T12:06:29.362Z,41.96
2017-01-20T12:07:38.428Z,41.67
2017-01-20T12:08:47.129Z,41.67
2017-01-20T12:09:56.600Z,41.96
2017-01-20T12:11:05.286Z,41.39
2017-01-20T12:12:14.371Z,41.77
2017-01-20T12:13:23.449Z,41.67
2017-01-20T12:14:32.925Z,41.87
2017-01-20T12:15:41.608Z,41.67
2017-01-20T12:16:50.720Z,41.67
2017-01-20T12:17:59.419Z,41.96
2017-01-20T12:19:08.872Z,41.99
2017-01-20T12:20:17.553Z,41.77
2017-01-20T12:21:26.226Z,41.96
2017-01-20T12:22:35.716Z,41.96
2017-01-20T12:23:44.781Z,41.77
2017-01-20T12:24:54.638Z,41.87
2017-01-20T12:26:04.104Z,42.06
2017-01-20T12:27:12.815Z,41.77
2017-01-20T12:28:21.510Z,41.87
2017-01-20T12:29:30.621Z,41.77
2017-01-20T12:30:39.690Z,41.96
2017-01-20T12:31:48.773Z,41.77
2017-01-20T12:32:58.631Z,41.77
2017-01-20T12:34:08.088Z,41.58
2017-01-20T12:35:17.171Z,41.67
2017-01-20T12:36:25.847Z,41.96
2017-01-20T12:37:34.550Z,41.67
2017-01-20T12:38:43.286Z,41.87
2017-01-20T12:39:52.357Z,41.77
2017-01-20T12:41:01.429Z,41.96
2017-01-20T12:42:10.111Z,41.87
2017-01-20T12:43:19.578Z,41.77
2017-01-20T12:44:28.664Z,41.87
2017-01-20T12:45:38.136Z,41.67
2017-01-20T12:46:47.599Z,41.77
2017-01-20T12:47:56.287Z,41.77
2017-01-20T12:49:04.987Z,41.77
2017-01-20T12:50:14.456Z,41.77
2017-01-20T12:51:23.133Z,41.87
2017-01-20T12:52:32.207Z,41.87
2017-01-20T12:53:41.276Z,41.77
2017-01-20T12:54:50.369Z,41.77
2017-01-20T12:55:59.454Z,42.06
2017-01-20T12:57:08.521Z,42.06
2017-01-20T12:58:18.430Z,41.87
2017-01-20T12:59:27.128Z,41.96
2017-01-20T13:00:36.196Z,41.87
2017-01-20T13:01:45.271Z,41.87
2017-01-20T13:02:54.352Z,41.87
2017-01-20T13:04:04.113Z,41.87
2017-01-20T13:05:13.198Z,41.87
2017-01-20T13:06:22.273Z,42.16
2017-01-20T13:07:32.516Z,42.06
2017-01-20T13:08:41.653Z,42.16
2017-01-20T13:09:50.722Z,42.16
2017-01-20T13:10:59.778Z,42.16
2017-01-20T13:12:09.228Z,42.35
2017-01-20T13:13:19.075Z,42.16
2017-01-20T13:14:28.134Z,42.06
2017-01-20T13:15:38.011Z,42.16
2017-01-20T13:16:47.119Z,42.06
2017-01-20T13:17:56.594Z,42.16
2017-01-20T13:19:05.666Z,42.06
2017-01-20T13:20:14.736Z,42.16
2017-01-20T13:21:24.212Z,42.16
2017-01-20T13:22:34.073Z,42.06
2017-01-20T13:23:42.780Z,41.87
2017-01-20T13:24:51.860Z,41.87
2017-01-20T13:26:00.943Z,41.87
2017-01-20T13:27:10.035Z,41.87
2017-01-20T13:28:18.723Z,41.87
2017-01-20T13:29:28.792Z,41.87
2017-01-20T13:30:37.488Z,41.96
2017-01-20T13:31:46.554Z,41.96
2017-01-20T13:32:55.625Z,41.96
2017-01-20T13:34:05.102Z,41.87
2017-01-20T13:35:14.202Z,41.87
2017-01-20T13:36:23.707Z,41.96
2017-01-20T13:37:32.800Z,42.06
2017-01-20T13:38:41.489Z,41.87
2017-01-20T13:39:50.166Z,41.87
2017-01-20T13:40:59.243Z,41.87
2017-01-20T13:42:08.302Z,41.87
2017-01-20T13:43:17.007Z,41.96
2017-01-20T13:44:25.683Z,41.96
2017-01-20T13:45:34.752Z,42.06
2017-01-20T13:46:43.824Z,41.87
2017-01-20T13:47:52.901Z,41.87
2017-01-20T13:49:02.008Z,41.87
2017-01-20T13:50:11.074Z,41.87
2017-01-20T13:51:19.751Z,42.06
2017-01-20T13:52:28.444Z,41.87
2017-01-20T13:53:37.145Z,42.06
2017-01-20T13:54:46.210Z,41.87
2017-01-20T13:55:55.312Z,41.96
2017-01-20T13:57:03.990Z,41.87
2017-01-20T13:58:13.069Z,42.16
2017-01-20T13:59:22.668Z,42.16
2017-01-20T14:00:31.349Z,42.16
2017-01-20T14:01:40.024Z,41.96
2017-01-20T14:02:49.488Z,42.18
2017-01-20T14:03:58.166Z,42.18
2017-01-20T14:05:08.187Z,42.18
2017-01-20T14:06:16.881Z,42.18
2017-01-20T14:07:25.564Z,42.16
2017-01-20T14:08:34.630Z,42.16
2017-01-20T14:09:43.310Z,42.18
2017-01-20T14:10:52.376Z,42.18
2017-01-20T14:12:01.440Z,42.16
2017-01-20T14:13:10.507Z,42.18
2017-01-20T14:14:19.988Z,42.16
2017-01-20T14:15:29.456Z,42.25
2017-01-20T14:16:38.629Z,41.77
2017-01-20T14:17:48.084Z,41.77
2017-01-20T14:18:56.764Z,41.96
2017-01-20T14:20:06.235Z,41.96
2017-01-20T14:21:15.299Z,41.7
2017-01-20T14:22:24.363Z,42.16
2017-01-20T14:23:33.430Z,41.96
2017-01-20T14:24:43.290Z,41.77
2017-01-20T14:25:52.369Z,41.77
2017-01-20T14:27:01.463Z,41.87
2017-01-20T14:28:10.159Z,42.06
2017-01-20T14:29:19.630Z,41.87
2017-01-20T14:30:28.705Z,42.06
2017-01-20T14:31:38.181Z,42.16
2017-01-20T14:32:46.897Z,42.25
2017-01-20T14:33:55.738Z,42.08
2017-01-20T14:35:05.202Z,42.25
2017-01-20T14:36:13.912Z,42.25
2017-01-20T14:37:23.005Z,42.06
2017-01-20T14:38:31.692Z,42.25
2017-01-20T14:39:41.115Z,42.06
2017-01-20T14:40:50.574Z,42.25
2017-01-20T14:42:00.054Z,42.08
2017-01-20T14:43:08.733Z,42.16
2017-01-20T14:44:17.832Z,42.06
2017-01-20T14:45:27.066Z,42.44
2017-01-20T14:46:36.533Z,42.16
2017-01-20T14:47:45.637Z,42.35
2017-01-20T14:48:55.109Z,42.35
2017-01-20T14:50:04.194Z,42.25
2017-01-20T14:51:13.684Z,42.16
2017-01-20T14:52:22.775Z,42.16
2017-01-20T14:53:32.233Z,42.16
2017-01-20T14:54:41.312Z,42.35